Time;durP1;ratioP1;P1;durP2;ratioP2;P2;SDS_P1;SDS_P2;PMS_P1;PMS_P2;Temp;Humidity;BMP_temperature;BMP_pressure;BME280_temperature;BME280_humidity;BME280_pressure;Samples;Min_cycle;Max_cycle;Signal;HPM_P1;HPM_P2
2021/09/18 05:41:51;;;;;;;;;18.25;17.50;;;;;18.51;57.63;101072.81;5954324;23;47663;-85
2021/09/18 07:42:50;;;;;;;;;14.75;13.75;;;;;19.52;56.04;101112.19;5259854;23;47318;-83
2021/09/18 13:37:11;;;;;;;;;4.00;4.00;;;;;30.80;31.36;100955.09;5707661;23;46655;-82
2021/09/18 13:39:40;;;;;;;;;5.33;4.00;;;;;30.54;31.71;100952.75;4941893;28;47292;-83
2021/09/18 13:42:07;;;;;;;;;4.00;4.00;;;;;30.32;32.08;100948.25;4942432;28;45836;-82
2021/09/18 13:44:33;;;;;;;;;4.00;4.00;;;;;30.66;31.94;100960.84;4953823;28;45347;-82
2021/09/18 13:46:58;;;;;;;;;4.00;4.00;;;;;30.97;31.45;100943.66;4957280;28;45428;-82
2021/09/18 13:49:24;;;;;;;;;5.67;5.00;;;;;30.88;31.15;100951.78;4952263;28;45493;-82
2021/09/18 13:51:49;;;;;;;;;5.67;5.00;;;;;30.66;31.26;100945.41;4959281;28;45614;-84
2021/09/18 13:54:15;;;;;;;;;4.33;4.00;;;;;30.54;32.29;100941.88;4960688;28;45444;-83
2021/09/18 13:56:41;;;;;;;;;4.00;4.00;;;;;30.47;32.06;100942.53;4963535;28;45650;-83
2021/09/18 13:59:06;;;;;;;;;5.33;5.00;;;;;30.54;32.10;100946.47;4934859;28;47059;-85
2021/09/18 14:01:34;;;;;;;;;6.00;5.00;;;;;30.44;32.27;100943.63;4959199;28;45363;-84
2021/09/18 14:04:00;;;;;;;;;5.33;4.33;;;;;30.20;31.94;100945.66;4939124;28;45420;-84
2021/09/18 14:06:25;;;;;;;;;6.00;3.33;;;;;29.98;32.55;100943.88;4936997;28;45353;-85
2021/09/18 14:08:51;;;;;;;;;4.67;4.67;;;;;29.68;32.70;100931.84;4943243;28;47857;-84
2021/09/18 14:11:17;;;;;;;;;4.00;4.00;;;;;29.45;32.84;100936.34;4943111;28;45145;-84
2021/09/18 14:13:43;;;;;;;;;4.00;4.00;;;;;29.28;33.44;100943.13;4943306;28;45455;-83
2021/09/18 14:16:08;;;;;;;;;3.00;3.00;;;;;29.40;33.22;100944.00;4957795;28;45236;-84
2021/09/18 14:18:34;;;;;;;;;6.00;6.00;;;;;30.34;33.10;100929.13;4939288;28;47001;-83
2021/09/18 14:20:59;;;;;;;;;5.33;5.00;;;;;30.65;32.47;100931.94;4942755;28;45459;-84
2021/09/18 14:23:25;;;;;;;;;5.33;4.33;;;;;30.79;32.33;100928.91;4943533;28;45404;-86
2021/09/18 14:26:05;;;;;;;;;1.67;1.67;;;;;32.61;31.26;100925.34;4948744;28;45378;-87
2021/09/18 14:28:31;;;;;;;;;4.67;4.67;;;;;35.25;28.84;100911.91;4945509;28;47094;-85
2021/09/18 14:34:05;;;;;;;;;3.00;3.00;;;;;40.28;24.54;100908.25;4943091;28;45552;-86
2021/09/18 14:37:24;;;;;;;;;;;;;;;;;;;;;
2021/09/18 14:40:52;;;;;;;;;;;;;;;;;;;;;
2021/09/18 14:44:21;;;;;;;;;3.00;3.00;;;;;43.97;19.84;100892.22;4897641;28;72002;-87
2021/09/18 14:47:30;;;;;;;;;;;;;;;;;;;;;
2021/09/18 14:54:23;;;;;;;;;4.50;4.50;;;;;43.55;19.37;100886.22;4939104;28;45945;-85
2021/09/18 16:29:30;;;;;;;;;4.33;4.00;;;;;27.13;34.86;100818.47;4897233;28;45469;-86
2021/09/18 16:32:09;;;;;;;;;;;;;;;;;;;;;
2021/09/18 18:22:20;;;;;;;;;6.00;6.00;;;;;24.25;45.41;100865.06;5215369;23;45506;-86
2021/09/18 18:25:04;;;;;;;;;;;;;;;;;;;;;
2021/09/18 18:27:32;;;;;;;;;7.00;6.00;;;;;24.12;45.95;100878.34;4941040;28;73505;-85
2021/09/18 18:29:58;;;;;;;;;6.67;6.00;;;;;24.02;46.12;100869.06;4940020;28;45428;-86
2021/09/18 18:32:26;;;;;;;;;9.00;7.00;;;;;24.01;46.69;100882.63;4942111;28;45445;-86
2021/09/18 18:34:58;;;;;;;;;7.33;7.33;;;;;23.94;46.74;100887.47;4941905;28;45486;-86
2021/09/18 18:37:42;;;;;;;;;;;;;;;;;;;;;
2021/09/18 18:40:10;;;;;;;;;6.33;6.33;;;;;23.71;47.41;100889.66;4939936;28;71813;-84
2021/09/18 18:46:25;;;;;;;;;;;;;;;;;;;;;
2021/09/18 18:49:22;;;;;;;;;;;;;;;;;;;;;
2021/09/18 18:52:50;;;;;;;;;7.00;7.00;;;;;23.36;48.69;100879.97;4935220;28;72845;-84
2021/09/18 18:55:35;;;;;;;;;6.67;6.67;;;;;23.38;48.64;100902.25;4878124;29;45579;-84
2021/09/18 19:02:05;;;;;;;;;7.33;7.33;;;;;23.22;49.42;100896.84;4940435;28;46153;-85
2021/09/18 19:04:47;;;;;;;;;;;;;;;;;;;;;
2021/09/18 19:07:25;;;;;;;;;7.67;7.67;;;;;23.10;49.58;100901.06;4945529;28;68525;-85
2021/09/18 19:09:54;;;;;;;;;7.33;7.33;;;;;23.01;49.72;100888.97;4951000;28;45406;-84
2021/09/18 19:16:05;;;;;;;;;7.33;6.33;;;;;22.92;50.86;100910.91;4931375;28;45454;-84
2021/09/18 19:18:49;;;;;;;;;;;;;;;;;;;;;
2021/09/18 19:22:22;;;;;;;;;;;;;;;;;;;;;
2021/09/18 19:32:28;;;;;;;;;;;;;;;;;;;;;
2021/09/18 19:36:24;;;;;;;;;;;;;;;;;;;;;
2021/09/18 19:38:17;;;;;;;;;7.00;6.00;;;;;22.39;52.92;100914.53;4820174;29;45594;-84
2021/09/18 19:41:31;;;;;;;;;;;;;;;;;;;;;
2021/09/18 19:44:42;;;;;;;;;7.00;6.00;;;;;22.24;53.65;100917.06;4859157;29;69259;-85
2021/09/18 19:47:10;;;;;;;;;6.67;6.67;;;;;22.23;53.37;100917.97;4859400;29;46061;-83
2021/09/18 19:49:41;;;;;;;;;7.67;6.00;;;;;22.22;53.99;100923.44;4874931;29;47824;-83
2021/09/18 19:55:44;;;;;;;;;6.00;6.00;;;;;22.11;54.29;100920.41;4902739;28;45614;-84
2021/09/18 20:06:40;;;;;;;;;;;;;;;;;;;;;
2021/09/18 20:23:02;;;;;;;;;7.00;7.00;;;;;21.60;55.84;100912.09;4719819;30;45671;-85
2021/09/18 20:25:28;;;;;;;;;7.00;6.33;;;;;21.55;56.03;100906.94;4717710;30;45486;-84
2021/09/18 20:27:54;;;;;;;;;10.00;8.33;;;;;21.48;56.70;100899.25;4730577;29;45433;-83
2021/09/18 20:30:28;;;;;;;;;9.00;8.00;;;;;21.46;56.90;100895.78;4734747;29;45912;-85
2021/09/18 20:33:02;;;;;;;;;7.33;6.33;;;;;21.44;56.62;100893.19;4843045;29;45524;-84
2021/09/18 20:35:59;;;;;;;;;7.33;7.33;;;;;21.52;56.74;100899.06;4889121;28;45759;-85
2021/09/18 20:38:33;;;;;;;;;7.67;6.33;;;;;21.49;56.98;100887.59;4933802;28;47011;-85
2021/09/18 20:41:03;;;;;;;;;8.00;6.33;;;;;21.50;56.95;100900.94;4962553;28;45503;-84
2021/09/18 20:43:32;;;;;;;;;8.25;6.00;;;;;21.48;57.28;100900.13;4961371;28;45460;-83
2021/09/18 20:46:01;;;;;;;;;6.67;6.00;;;;;21.48;57.05;100899.25;4940289;28;45973;-84
2021/09/18 20:48:43;;;;;;;;;5.33;5.33;;;;;21.35;57.56;100881.03;4940971;28;46961;-85
2021/09/18 20:52:08;;;;;;;;;4.50;4.50;;;;;21.35;57.74;100882.84;4948280;28;45305;-84
2021/09/18 20:54:45;;;;;;;;;7.00;6.75;;;;;21.38;57.32;100892.59;4949327;28;45467;-84
2021/09/18 20:57:27;;;;;;;;;7.00;7.00;;;;;21.43;57.67;100896.78;4933116;28;45426;-85
2021/09/18 21:06:17;;;;;;;;;7.00;7.00;;;;;21.49;57.56;100887.59;4956071;28;45274;-84
2021/09/18 21:08:50;;;;;;;;;8.00;7.75;;;;;21.50;57.64;100890.22;4940337;28;45324;-84
2021/09/18 21:11:32;;;;;;;;;8.33;8.00;;;;;21.53;57.76;100881.16;4940780;28;46780;-84
2021/09/18 21:14:08;;;;;;;;;9.00;9.00;;;;;21.52;57.69;100891.03;4938149;28;45445;-84
2021/09/18 21:16:52;;;;;;;;;;;;;;;;;;;;;
2021/09/18 21:19:42;;;;;;;;;6.00;6.00;;;;;21.49;58.05;100880.44;4959123;28;72686;-85
2021/09/18 21:29:29;;;;;;;;;7.33;7.33;;;;;21.45;58.83;100878.84;4881663;29;45409;-85
2021/09/18 21:35:44;;;;;;;;;7.67;7.67;;;;;21.43;59.06;100874.50;4947290;28;45539;-84
2021/09/18 21:38:32;;;;;;;;;;;;;;;;;;;;;
2021/09/18 21:41:01;;;;;;;;;7.67;7.67;;;;;21.32;58.95;100858.91;4963748;28;67798;-84
2021/09/18 21:47:28;;;;;;;;;7.00;7.00;;;;;21.23;59.33;100848.63;4879114;29;46009;-85
